sensor_id;sensor_type;location;lat;lon;timestamp;P1;durP1;ratioP1;P2;durP2;ratioP2
47784;SDS011;35233;55.686;37.848;2023-08-01T00:01:50;6.28;;;3.75;;
47784;SDS011;35233;55.686;37.848;2023-08-01T00:04:15;8.93;;;4.00;;
47784;SDS011;35233;55.686;37.848;2023-08-01T00:06:41;6.50;;;3.88;;
47784;SDS011;35233;55.686;37.848;2023-08-01T00:09:07;5.65;;;4.13;;
47784;SDS011;35233;55.686;37.848;2023-08-01T00:11:32;7.32;;;4.20;;
47784;SDS011;35233;55.686;37.848;2023-08-01T00:13:58;6.18;;;4.13;;
47784;SDS011;35233;55.686;37.848;2023-08-01T00:16:23;6.53;;;4.20;;
47784;SDS011;35233;55.686;37.848;2023-08-01T00:18:49;8.23;;;4.30;;
47784;SDS011;35233;55.686;37.848;2023-08-01T00:21:16;8.35;;;4.10;;
47784;SDS011;35233;55.686;37.848;2023-08-01T00:23:41;6.72;;;4.07;;
47784;SDS011;35233;55.686;37.848;2023-08-01T00:26:06;8.23;;;4.25;;
47784;SDS011;35233;55.686;37.848;2023-08-01T00:28:32;6.78;;;4.07;;
47784;SDS011;35233;55.686;37.848;2023-08-01T00:31:04;6.32;;;4.60;;
47784;SDS011;35233;55.686;37.848;2023-08-01T00:33:30;6.85;;;4.40;;
47784;SDS011;35233;55.686;37.848;2023-08-01T00:35:56;8.52;;;4.57;;
47784;SDS011;35233;55.686;37.848;2023-08-01T00:38:21;7.75;;;4.20;;
47784;SDS011;35233;55.686;37.848;2023-08-01T00:40:47;5.93;;;4.18;;
47784;SDS011;35233;55.686;37.848;2023-08-01T00:43:12;5.82;;;3.90;;
47784;SDS011;35233;55.686;37.848;2023-08-01T00:45:38;6.68;;;4.28;;
47784;SDS011;35233;55.686;37.848;2023-08-01T00:48:03;7.43;;;3.97;;
47784;SDS011;35233;55.686;37.848;2023-08-01T00:50:29;8.35;;;4.22;;
47784;SDS011;35233;55.686;37.848;2023-08-01T00:52:54;5.93;;;3.90;;
47784;SDS011;35233;55.686;37.848;2023-08-01T00:55:21;5.85;;;3.88;;
47784;SDS011;35233;55.686;37.848;2023-08-01T00:57:47;5.45;;;3.97;;
47784;SDS011;35233;55.686;37.848;2023-08-01T01:00:14;8.43;;;4.38;;
47784;SDS011;35233;55.686;37.848;2023-08-01T01:02:39;7.10;;;3.92;;
47784;SDS011;35233;55.686;37.848;2023-08-01T01:05:05;5.28;;;3.88;;
47784;SDS011;35233;55.686;37.848;2023-08-01T01:07:31;6.03;;;4.10;;
47784;SDS011;35233;55.686;37.848;2023-08-01T01:09:57;5.47;;;4.00;;
47784;SDS011;35233;55.686;37.848;2023-08-01T01:12:23;6.40;;;4.15;;
47784;SDS011;35233;55.686;37.848;2023-08-01T01:14:49;7.13;;;4.35;;
47784;SDS011;35233;55.686;37.848;2023-08-01T01:17:14;7.45;;;4.60;;
47784;SDS011;35233;55.686;37.848;2023-08-01T01:19:40;7.78;;;4.38;;
47784;SDS011;35233;55.686;37.848;2023-08-01T01:22:06;5.47;;;4.13;;
47784;SDS011;35233;55.686;37.848;2023-08-01T01:24:34;7.07;;;4.18;;
47784;SDS011;35233;55.686;37.848;2023-08-01T01:27:01;6.78;;;4.35;;
47784;SDS011;35233;55.686;37.848;2023-08-01T01:29:28;8.50;;;4.50;;
47784;SDS011;35233;55.686;37.848;2023-08-01T01:31:55;8.32;;;4.28;;
47784;SDS011;35233;55.686;37.848;2023-08-01T01:34:22;6.30;;;4.50;;
47784;SDS011;35233;55.686;37.848;2023-08-01T01:36:48;5.70;;;4.35;;
47784;SDS011;35233;55.686;37.848;2023-08-01T01:39:13;7.63;;;4.55;;
47784;SDS011;35233;55.686;37.848;2023-08-01T01:41:38;7.80;;;4.50;;
47784;SDS011;35233;55.686;37.848;2023-08-01T01:44:04;7.53;;;4.63;;
47784;SDS011;35233;55.686;37.848;2023-08-01T01:46:29;7.28;;;4.60;;
47784;SDS011;35233;55.686;37.848;2023-08-01T01:48:55;5.57;;;4.18;;
47784;SDS011;35233;55.686;37.848;2023-08-01T01:51:22;5.93;;;4.45;;
47784;SDS011;35233;55.686;37.848;2023-08-01T01:53:47;8.20;;;4.40;;
47784;SDS011;35233;55.686;37.848;2023-08-01T01:56:13;7.38;;;5.20;;
47784;SDS011;35233;55.686;37.848;2023-08-01T01:58:38;7.75;;;5.00;;
47784;SDS011;35233;55.686;37.848;2023-08-01T02:01:04;7.60;;;5.07;;
47784;SDS011;35233;55.686;37.848;2023-08-01T02:03:29;7.45;;;4.53;;
47784;SDS011;35233;55.686;37.848;2023-08-01T02:05:54;7.18;;;4.70;;
47784;SDS011;35233;55.686;37.848;2023-08-01T02:08:20;6.97;;;4.70;;
47784;SDS011;35233;55.686;37.848;2023-08-01T02:10:45;7.22;;;5.07;;
47784;SDS011;35233;55.686;37.848;2023-08-01T02:13:11;6.38;;;4.82;;
47784;SDS011;35233;55.686;37.848;2023-08-01T02:15:36;7.78;;;4.47;;
47784;SDS011;35233;55.686;37.848;2023-08-01T02:18:02;7.28;;;4.88;;
47784;SDS011;35233;55.686;37.848;2023-08-01T02:20:27;7.07;;;4.68;;
47784;SDS011;35233;55.686;37.848;2023-08-01T02:22:54;7.70;;;5.10;;
47784;SDS011;35233;55.686;37.848;2023-08-01T02:25:19;9.57;;;4.88;;
47784;SDS011;35233;55.686;37.848;2023-08-01T02:27:45;9.00;;;4.75;;
47784;SDS011;35233;55.686;37.848;2023-08-01T02:30:10;7.32;;;5.10;;
47784;SDS011;35233;55.686;37.848;2023-08-01T02:32:36;5.93;;;4.78;;
47784;SDS011;35233;55.686;37.848;2023-08-01T02:35:02;8.75;;;5.30;;
47784;SDS011;35233;55.686;37.848;2023-08-01T02:37:27;7.60;;;4.97;;
47784;SDS011;35233;55.686;37.848;2023-08-01T02:39:53;6.60;;;5.03;;
47784;SDS011;35233;55.686;37.848;2023-08-01T02:42:18;8.13;;;5.68;;
47784;SDS011;35233;55.686;37.848;2023-08-01T02:44:43;8.02;;;5.00;;
47784;SDS011;35233;55.686;37.848;2023-08-01T02:47:09;7.80;;;5.25;;
47784;SDS011;35233;55.686;37.848;2023-08-01T02:49:34;9.65;;;5.13;;
47784;SDS011;35233;55.686;37.848;2023-08-01T02:52:00;8.20;;;5.32;;
47784;SDS011;35233;55.686;37.848;2023-08-01T02:54:25;7.30;;;4.97;;
47784;SDS011;35233;55.686;37.848;2023-08-01T02:56:51;9.05;;;5.57;;
47784;SDS011;35233;55.686;37.848;2023-08-01T02:59:16;6.32;;;4.53;;
47784;SDS011;35233;55.686;37.848;2023-08-01T03:01:43;8.25;;;5.07;;
47784;SDS011;35233;55.686;37.848;2023-08-01T03:04:08;6.53;;;4.80;;
47784;SDS011;35233;55.686;37.848;2023-08-01T03:06:36;8.10;;;5.63;;
47784;SDS011;35233;55.686;37.848;2023-08-01T03:09:02;7.32;;;5.00;;
47784;SDS011;35233;55.686;37.848;2023-08-01T03:11:28;6.78;;;4.80;;
47784;SDS011;35233;55.686;37.848;2023-08-01T03:13:54;7.15;;;5.32;;
47784;SDS011;35233;55.686;37.848;2023-08-01T03:16:19;9.88;;;5.15;;
47784;SDS011;35233;55.686;37.848;2023-08-01T03:18:45;8.43;;;4.95;;
47784;SDS011;35233;55.686;37.848;2023-08-01T03:21:10;7.88;;;5.00;;
47784;SDS011;35233;55.686;37.848;2023-08-01T03:23:36;7.20;;;5.03;;
47784;SDS011;35233;55.686;37.848;2023-08-01T03:26:02;8.38;;;4.93;;
47784;SDS011;35233;55.686;37.848;2023-08-01T03:28:28;8.13;;;5.38;;
47784;SDS011;35233;55.686;37.848;2023-08-01T03:30:53;7.95;;;5.07;;
47784;SDS011;35233;55.686;37.848;2023-08-01T03:33:21;8.20;;;5.35;;
47784;SDS011;35233;55.686;37.848;2023-08-01T03:35:47;6.03;;;4.88;;
47784;SDS011;35233;55.686;37.848;2023-08-01T03:38:13;7.25;;;5.32;;
47784;SDS011;35233;55.686;37.848;2023-08-01T03:40:38;7.20;;;5.20;;
47784;SDS011;35233;55.686;37.848;2023-08-01T03:43:04;9.55;;;5.13;;
47784;SDS011;35233;55.686;37.848;2023-08-01T03:45:31;8.95;;;5.57;;
47784;SDS011;35233;55.686;37.848;2023-08-01T03:47:56;6.97;;;5.15;;
47784;SDS011;35233;55.686;37.848;2023-08-01T03:50:22;7.55;;;5.22;;
47784;SDS011;35233;55.686;37.848;2023-08-01T03:52:48;7.85;;;5.32;;
47784;SDS011;35233;55.686;37.848;2023-08-01T03:55:14;9.07;;;5.20;;
47784;SDS011;35233;55.686;37.848;2023-08-01T03:57:39;9.48;;;4.90;;
47784;SDS011;35233;55.686;37.848;2023-08-01T04:00:06;6.35;;;4.57;;
47784;SDS011;35233;55.686;37.848;2023-08-01T04:02:38;7.25;;;5.03;;
47784;SDS011;35233;55.686;37.848;2023-08-01T04:05:07;7.90;;;5.13;;
47784;SDS011;35233;55.686;37.848;2023-08-01T04:07:34;6.90;;;4.80;;
47784;SDS011;35233;55.686;37.848;2023-08-01T04:10:01;6.57;;;4.97;;
47784;SDS011;35233;55.686;37.848;2023-08-01T04:12:27;7.72;;;5.10;;
47784;SDS011;35233;55.686;37.848;2023-08-01T04:14:53;6.68;;;4.95;;
47784;SDS011;35233;55.686;37.848;2023-08-01T04:17:18;7.95;;;5.35;;
47784;SDS011;35233;55.686;37.848;2023-08-01T04:19:44;6.43;;;4.85;;
47784;SDS011;35233;55.686;37.848;2023-08-01T04:22:09;7.80;;;5.00;;
47784;SDS011;35233;55.686;37.848;2023-08-01T04:24:35;9.40;;;5.18;;
47784;SDS011;35233;55.686;37.848;2023-08-01T04:27:00;8.25;;;4.40;;
47784;SDS011;35233;55.686;37.848;2023-08-01T04:29:26;8.70;;;5.72;;
47784;SDS011;35233;55.686;37.848;2023-08-01T04:31:51;7.75;;;5.05;;
47784;SDS011;35233;55.686;37.848;2023-08-01T04:34:17;7.90;;;5.07;;
47784;SDS011;35233;55.686;37.848;2023-08-01T04:36:42;6.55;;;4.57;;
47784;SDS011;35233;55.686;37.848;2023-08-01T04:39:08;9.10;;;5.00;;
47784;SDS011;35233;55.686;37.848;2023-08-01T04:41:33;7.53;;;5.00;;
47784;SDS011;35233;55.686;37.848;2023-08-01T04:43:58;7.05;;;4.90;;
47784;SDS011;35233;55.686;37.848;2023-08-01T04:46:24;8.35;;;4.65;;
47784;SDS011;35233;55.686;37.848;2023-08-01T04:48:49;6.70;;;5.03;;
47784;SDS011;35233;55.686;37.848;2023-08-01T04:51:15;6.85;;;5.13;;
47784;SDS011;35233;55.686;37.848;2023-08-01T04:53:40;6.80;;;4.80;;
47784;SDS011;35233;55.686;37.848;2023-08-01T04:56:06;5.85;;;4.53;;
47784;SDS011;35233;55.686;37.848;2023-08-01T04:58:31;5.85;;;4.28;;
47784;SDS011;35233;55.686;37.848;2023-08-01T05:00:57;6.05;;;4.72;;
47784;SDS011;35233;55.686;37.848;2023-08-01T05:03:22;7.22;;;4.80;;
47784;SDS011;35233;55.686;37.848;2023-08-01T05:05:47;5.93;;;4.57;;
47784;SDS011;35233;55.686;37.848;2023-08-01T05:08:13;6.72;;;4.55;;
47784;SDS011;35233;55.686;37.848;2023-08-01T05:10:38;6.85;;;4.68;;
47784;SDS011;35233;55.686;37.848;2023-08-01T05:13:04;7.28;;;4.63;;
47784;SDS011;35233;55.686;37.848;2023-08-01T05:15:32;5.68;;;4.32;;
47784;SDS011;35233;55.686;37.848;2023-08-01T05:17:57;6.28;;;4.55;;
47784;SDS011;35233;55.686;37.848;2023-08-01T05:20:23;5.65;;;4.30;;
47784;SDS011;35233;55.686;37.848;2023-08-01T05:22:48;6.25;;;4.38;;
47784;SDS011;35233;55.686;37.848;2023-08-01T05:25:14;5.82;;;4.53;;
47784;SDS011;35233;55.686;37.848;2023-08-01T05:27:39;5.50;;;4.13;;
47784;SDS011;35233;55.686;37.848;2023-08-01T05:30:05;6.50;;;4.35;;
47784;SDS011;35233;55.686;37.848;2023-08-01T05:32:31;6.90;;;4.43;;
47784;SDS011;35233;55.686;37.848;2023-08-01T05:34:56;6.07;;;4.03;;
47784;SDS011;35233;55.686;37.848;2023-08-01T05:37:21;5.45;;;4.28;;
47784;SDS011;35233;55.686;37.848;2023-08-01T05:39:47;5.30;;;4.10;;
47784;SDS011;35233;55.686;37.848;2023-08-01T05:42:14;6.55;;;4.43;;
47784;SDS011;35233;55.686;37.848;2023-08-01T05:44:39;5.25;;;4.13;;
47784;SDS011;35233;55.686;37.848;2023-08-01T05:47:05;5.40;;;4.05;;
47784;SDS011;35233;55.686;37.848;2023-08-01T05:49:30;6.38;;;4.13;;
47784;SDS011;35233;55.686;37.848;2023-08-01T05:51:55;5.78;;;4.05;;
47784;SDS011;35233;55.686;37.848;2023-08-01T05:54:21;5.90;;;4.25;;
47784;SDS011;35233;55.686;37.848;2023-08-01T05:56:47;5.70;;;4.10;;
47784;SDS011;35233;55.686;37.848;2023-08-01T05:59:12;5.93;;;4.15;;
47784;SDS011;35233;55.686;37.848;2023-08-01T06:01:38;5.32;;;3.90;;
47784;SDS011;35233;55.686;37.848;2023-08-01T06:04:03;5.53;;;4.00;;
47784;SDS011;35233;55.686;37.848;2023-08-01T06:06:29;6.80;;;4.13;;
47784;SDS011;35233;55.686;37.848;2023-08-01T06:08:54;5.13;;;3.90;;
47784;SDS011;35233;55.686;37.848;2023-08-01T06:11:21;4.93;;;3.60;;
47784;SDS011;35233;55.686;37.848;2023-08-01T06:13:46;5.38;;;4.00;;
47784;SDS011;35233;55.686;37.848;2023-08-01T06:16:12;4.95;;;3.70;;
47784;SDS011;35233;55.686;37.848;2023-08-01T06:18:37;5.82;;;3.80;;
47784;SDS011;35233;55.686;37.848;2023-08-01T06:21:03;4.93;;;3.80;;
47784;SDS011;35233;55.686;37.848;2023-08-01T06:23:28;5.40;;;3.75;;
47784;SDS011;35233;55.686;37.848;2023-08-01T06:25:54;4.80;;;3.60;;
47784;SDS011;35233;55.686;37.848;2023-08-01T06:28:19;5.53;;;4.15;;
47784;SDS011;35233;55.686;37.848;2023-08-01T06:30:45;6.10;;;3.80;;
47784;SDS011;35233;55.686;37.848;2023-08-01T06:33:10;4.50;;;3.53;;
47784;SDS011;35233;55.686;37.848;2023-08-01T06:35:36;5.05;;;3.83;;
47784;SDS011;35233;55.686;37.848;2023-08-01T06:38:01;4.75;;;3.53;;
47784;SDS011;35233;55.686;37.848;2023-08-01T06:40:27;4.90;;;3.70;;
47784;SDS011;35233;55.686;37.848;2023-08-01T06:42:52;4.88;;;3.60;;
47784;SDS011;35233;55.686;37.848;2023-08-01T06:45:18;4.93;;;3.75;;
47784;SDS011;35233;55.686;37.848;2023-08-01T06:47:43;5.57;;;4.07;;
47784;SDS011;35233;55.686;37.848;2023-08-01T06:50:09;4.53;;;3.58;;
47784;SDS011;35233;55.686;37.848;2023-08-01T06:52:35;3.90;;;3.42;;
47784;SDS011;35233;55.686;37.848;2023-08-01T06:55:00;5.25;;;3.60;;
47784;SDS011;35233;55.686;37.848;2023-08-01T06:57:26;4.65;;;3.50;;
47784;SDS011;35233;55.686;37.848;2023-08-01T06:59:52;5.95;;;3.72;;
47784;SDS011;35233;55.686;37.848;2023-08-01T07:02:18;4.55;;;3.63;;
47784;SDS011;35233;55.686;37.848;2023-08-01T07:04:43;5.50;;;3.75;;
47784;SDS011;35233;55.686;37.848;2023-08-01T07:07:09;5.93;;;4.25;;
47784;SDS011;35233;55.686;37.848;2023-08-01T07:09:34;4.88;;;3.38;;
47784;SDS011;35233;55.686;37.848;2023-08-01T07:12:00;4.63;;;3.50;;
47784;SDS011;35233;55.686;37.848;2023-08-01T07:14:25;4.65;;;3.67;;
47784;SDS011;35233;55.686;37.848;2023-08-01T07:16:51;4.80;;;3.42;;
47784;SDS011;35233;55.686;37.848;2023-08-01T07:19:16;4.38;;;3.30;;
47784;SDS011;35233;55.686;37.848;2023-08-01T07:21:42;4.22;;;3.28;;
47784;SDS011;35233;55.686;37.848;2023-08-01T07:24:10;4.57;;;3.33;;
47784;SDS011;35233;55.686;37.848;2023-08-01T07:26:35;4.85;;;3.70;;
47784;SDS011;35233;55.686;37.848;2023-08-01T07:29:00;4.25;;;3.33;;
47784;SDS011;35233;55.686;37.848;2023-08-01T07:31:26;4.97;;;3.40;;
47784;SDS011;35233;55.686;37.848;2023-08-01T07:33:52;4.82;;;3.53;;
47784;SDS011;35233;55.686;37.848;2023-08-01T07:36:17;5.15;;;3.75;;
47784;SDS011;35233;55.686;37.848;2023-08-01T07:38:43;4.43;;;3.20;;
47784;SDS011;35233;55.686;37.848;2023-08-01T07:41:08;4.78;;;3.30;;
47784;SDS011;35233;55.686;37.848;2023-08-01T07:43:34;4.43;;;3.33;;
47784;SDS011;35233;55.686;37.848;2023-08-01T07:45:59;4.20;;;3.50;;
47784;SDS011;35233;55.686;37.848;2023-08-01T07:48:25;4.70;;;3.28;;
47784;SDS011;35233;55.686;37.848;2023-08-01T07:50:51;4.55;;;3.17;;
47784;SDS011;35233;55.686;37.848;2023-08-01T07:53:17;4.40;;;3.30;;
47784;SDS011;35233;55.686;37.848;2023-08-01T07:55:42;3.97;;;3.08;;
47784;SDS011;35233;55.686;37.848;2023-08-01T07:58:07;5.68;;;3.42;;
47784;SDS011;35233;55.686;37.848;2023-08-01T08:00:36;4.38;;;3.40;;
47784;SDS011;35233;55.686;37.848;2023-08-01T08:03:02;4.63;;;3.35;;
47784;SDS011;35233;55.686;37.848;2023-08-01T08:05:27;4.32;;;3.35;;
47784;SDS011;35233;55.686;37.848;2023-08-01T08:07:53;4.97;;;3.40;;
47784;SDS011;35233;55.686;37.848;2023-08-01T08:10:18;5.22;;;3.40;;
47784;SDS011;35233;55.686;37.848;2023-08-01T08:12:44;4.72;;;3.50;;
47784;SDS011;35233;55.686;37.848;2023-08-01T08:15:09;4.25;;;3.33;;
47784;SDS011;35233;55.686;37.848;2023-08-01T08:17:35;3.70;;;2.95;;
47784;SDS011;35233;55.686;37.848;2023-08-01T08:20:01;4.32;;;3.15;;
47784;SDS011;35233;55.686;37.848;2023-08-01T08:22:28;4.43;;;3.30;;
47784;SDS011;35233;55.686;37.848;2023-08-01T08:24:53;4.25;;;3.40;;
47784;SDS011;35233;55.686;37.848;2023-08-01T08:27:19;4.10;;;3.20;;
47784;SDS011;35233;55.686;37.848;2023-08-01T08:29:44;3.83;;;3.00;;
47784;SDS011;35233;55.686;37.848;2023-08-01T08:32:10;3.90;;;3.20;;
47784;SDS011;35233;55.686;37.848;2023-08-01T08:34:35;4.93;;;3.60;;
47784;SDS011;35233;55.686;37.848;2023-08-01T08:37:01;3.65;;;3.13;;
47784;SDS011;35233;55.686;37.848;2023-08-01T08:39:26;4.10;;;3.28;;
47784;SDS011;35233;55.686;37.848;2023-08-01T08:41:52;4.03;;;3.30;;
47784;SDS011;35233;55.686;37.848;2023-08-01T08:44:18;4.72;;;3.40;;
47784;SDS011;35233;55.686;37.848;2023-08-01T08:46:52;4.38;;;3.30;;
47784;SDS011;35233;55.686;37.848;2023-08-01T08:49:21;5.28;;;3.40;;
47784;SDS011;35233;55.686;37.848;2023-08-01T08:51:47;3.90;;;3.20;;
47784;SDS011;35233;55.686;37.848;2023-08-01T08:54:14;4.45;;;3.33;;
47784;SDS011;35233;55.686;37.848;2023-08-01T08:56:41;4.03;;;3.00;;
47784;SDS011;35233;55.686;37.848;2023-08-01T08:59:07;3.75;;;3.22;;
47784;SDS011;35233;55.686;37.848;2023-08-01T09:01:35;4.18;;;3.10;;
47784;SDS011;35233;55.686;37.848;2023-08-01T09:04:01;4.45;;;3.40;;
47784;SDS011;35233;55.686;37.848;2023-08-01T09:06:30;4.35;;;3.25;;
47784;SDS011;35233;55.686;37.848;2023-08-01T09:11:26;4.32;;;3.17;;
47784;SDS011;35233;55.686;37.848;2023-08-01T09:13:51;4.03;;;3.00;;
47784;SDS011;35233;55.686;37.848;2023-08-01T09:16:18;4.15;;;3.22;;
47784;SDS011;35233;55.686;37.848;2023-08-01T09:18:50;4.28;;;3.03;;
47784;SDS011;35233;55.686;37.848;2023-08-01T09:21:20;3.88;;;3.13;;
47784;SDS011;35233;55.686;37.848;2023-08-01T09:23:46;4.28;;;2.95;;
47784;SDS011;35233;55.686;37.848;2023-08-01T09:26:16;4.03;;;3.00;;
47784;SDS011;35233;55.686;37.848;2023-08-01T09:28:42;3.50;;;2.80;;
47784;SDS011;35233;55.686;37.848;2023-08-01T09:31:10;3.75;;;2.90;;
47784;SDS011;35233;55.686;37.848;2023-08-01T09:33:42;4.15;;;3.20;;
47784;SDS011;35233;55.686;37.848;2023-08-01T09:36:08;3.80;;;3.00;;
47784;SDS011;35233;55.686;37.848;2023-08-01T09:38:34;3.60;;;3.05;;
47784;SDS011;35233;55.686;37.848;2023-08-01T09:41:01;4.85;;;3.10;;
47784;SDS011;35233;55.686;37.848;2023-08-01T09:43:33;4.03;;;2.92;;
47784;SDS011;35233;55.686;37.848;2023-08-01T09:46:01;3.97;;;2.90;;
47784;SDS011;35233;55.686;37.848;2023-08-01T09:48:27;3.70;;;2.90;;
47784;SDS011;35233;55.686;37.848;2023-08-01T09:51:15;3.90;;;3.00;;
47784;SDS011;35233;55.686;37.848;2023-08-01T09:56:22;3.80;;;3.10;;
47784;SDS011;35233;55.686;37.848;2023-08-01T09:58:49;4.40;;;2.95;;
47784;SDS011;35233;55.686;37.848;2023-08-01T10:01:16;3.55;;;2.95;;
47784;SDS011;35233;55.686;37.848;2023-08-01T10:03:50;4.20;;;3.15;;
47784;SDS011;35233;55.686;37.848;2023-08-01T10:06:21;3.50;;;3.00;;
47784;SDS011;35233;55.686;37.848;2023-08-01T10:08:48;4.32;;;3.25;;
47784;SDS011;35233;55.686;37.848;2023-08-01T10:11:17;4.03;;;3.13;;
47784;SDS011;35233;55.686;37.848;2023-08-01T10:13:44;3.63;;;2.90;;
47784;SDS011;35233;55.686;37.848;2023-08-01T10:16:10;4.00;;;2.95;;
47784;SDS011;35233;55.686;37.848;2023-08-01T10:18:36;3.67;;;2.90;;
47784;SDS011;35233;55.686;37.848;2023-08-01T10:21:03;3.10;;;2.60;;
47784;SDS011;35233;55.686;37.848;2023-08-01T10:23:32;4.15;;;3.35;;
47784;SDS011;35233;55.686;37.848;2023-08-01T10:25:59;4.60;;;3.20;;
47784;SDS011;35233;55.686;37.848;2023-08-01T10:28:39;4.25;;;2.95;;
47784;SDS011;35233;55.686;37.848;2023-08-01T10:33:38;3.63;;;2.92;;
47784;SDS011;35233;55.686;37.848;2023-08-01T10:36:21;3.08;;;2.70;;
47784;SDS011;35233;55.686;37.848;2023-08-01T10:41:28;3.03;;;2.65;;
47784;SDS011;35233;55.686;37.848;2023-08-01T10:44:04;3.65;;;2.90;;
47784;SDS011;35233;55.686;37.848;2023-08-01T10:46:44;3.65;;;2.72;;
47784;SDS011;35233;55.686;37.848;2023-08-01T10:49:20;3.80;;;2.90;;
47784;SDS011;35233;55.686;37.848;2023-08-01T10:51:58;3.38;;;2.90;;
47784;SDS011;35233;55.686;37.848;2023-08-01T10:54:24;3.55;;;2.80;;
47784;SDS011;35233;55.686;37.848;2023-08-01T10:56:51;3.50;;;2.80;;
47784;SDS011;35233;55.686;37.848;2023-08-01T10:59:18;3.35;;;2.70;;
47784;SDS011;35233;55.686;37.848;2023-08-01T11:01:44;3.65;;;2.80;;
47784;SDS011;35233;55.686;37.848;2023-08-01T11:04:15;4.03;;;2.83;;
47784;SDS011;35233;55.686;37.848;2023-08-01T11:06:45;4.00;;;2.90;;
47784;SDS011;35233;55.686;37.848;2023-08-01T11:09:27;3.65;;;2.78;;
47784;SDS011;35233;55.686;37.848;2023-08-01T11:11:56;3.05;;;2.58;;
47784;SDS011;35233;55.686;37.848;2023-08-01T11:14:23;3.55;;;2.83;;
47784;SDS011;35233;55.686;37.848;2023-08-01T11:16:50;3.90;;;2.75;;
47784;SDS011;35233;55.686;37.848;2023-08-01T11:19:36;4.53;;;3.20;;
47784;SDS011;35233;55.686;37.848;2023-08-01T11:22:08;4.35;;;3.17;;
47784;SDS011;35233;55.686;37.848;2023-08-01T11:24:34;3.53;;;2.88;;
47784;SDS011;35233;55.686;37.848;2023-08-01T11:27:00;4.50;;;2.90;;
47784;SDS011;35233;55.686;37.848;2023-08-01T11:29:25;3.45;;;3.10;;
47784;SDS011;35233;55.686;37.848;2023-08-01T11:31:59;4.15;;;2.85;;
47784;SDS011;35233;55.686;37.848;2023-08-01T11:34:25;3.30;;;2.70;;
47784;SDS011;35233;55.686;37.848;2023-08-01T11:36:51;3.38;;;2.58;;
47784;SDS011;35233;55.686;37.848;2023-08-01T11:39:17;3.65;;;2.95;;
47784;SDS011;35233;55.686;37.848;2023-08-01T11:41:44;4.13;;;2.95;;
47784;SDS011;35233;55.686;37.848;2023-08-01T11:44:09;3.58;;;2.65;;
47784;SDS011;35233;55.686;37.848;2023-08-01T11:46:36;3.47;;;2.67;;
47784;SDS011;35233;55.686;37.848;2023-08-01T11:49:03;3.25;;;2.53;;
47784;SDS011;35233;55.686;37.848;2023-08-01T11:51:30;3.13;;;2.60;;
47784;SDS011;35233;55.686;37.848;2023-08-01T11:54:04;3.28;;;2.63;;
47784;SDS011;35233;55.686;37.848;2023-08-01T11:56:30;4.00;;;3.05;;
47784;SDS011;35233;55.686;37.848;2023-08-01T11:58:56;3.95;;;2.83;;
47784;SDS011;35233;55.686;37.848;2023-08-01T12:01:22;3.28;;;2.63;;
47784;SDS011;35233;55.686;37.848;2023-08-01T12:03:48;3.58;;;2.72;;
47784;SDS011;35233;55.686;37.848;2023-08-01T12:06:19;4.22;;;2.90;;
47784;SDS011;35233;55.686;37.848;2023-08-01T12:08:47;3.05;;;2.45;;
47784;SDS011;35233;55.686;37.848;2023-08-01T12:11:24;3.35;;;2.72;;
47784;SDS011;35233;55.686;37.848;2023-08-01T12:16:30;3.35;;;2.65;;
47784;SDS011;35233;55.686;37.848;2023-08-01T12:18:56;3.85;;;2.72;;
47784;SDS011;35233;55.686;37.848;2023-08-01T12:21:22;3.00;;;2.45;;
47784;SDS011;35233;55.686;37.848;2023-08-01T12:23:48;3.15;;;2.65;;
47784;SDS011;35233;55.686;37.848;2023-08-01T12:26:14;3.65;;;2.80;;
47784;SDS011;35233;55.686;37.848;2023-08-01T12:28:39;4.00;;;3.10;;
47784;SDS011;35233;55.686;37.848;2023-08-01T12:31:05;3.40;;;2.90;;
47784;SDS011;35233;55.686;37.848;2023-08-01T12:33:30;3.50;;;2.70;;
47784;SDS011;35233;55.686;37.848;2023-08-01T12:35:58;3.28;;;2.63;;
47784;SDS011;35233;55.686;37.848;2023-08-01T12:38:24;3.35;;;2.63;;
47784;SDS011;35233;55.686;37.848;2023-08-01T12:40:50;3.08;;;2.47;;
47784;SDS011;35233;55.686;37.848;2023-08-01T12:43:16;2.95;;;2.50;;
47784;SDS011;35233;55.686;37.848;2023-08-01T12:45:42;4.18;;;3.00;;
47784;SDS011;35233;55.686;37.848;2023-08-01T12:48:08;3.20;;;2.53;;
47784;SDS011;35233;55.686;37.848;2023-08-01T12:50:33;3.25;;;2.65;;
47784;SDS011;35233;55.686;37.848;2023-08-01T12:52:59;3.15;;;2.60;;
47784;SDS011;35233;55.686;37.848;2023-08-01T12:55:24;3.25;;;2.72;;
47784;SDS011;35233;55.686;37.848;2023-08-01T12:57:50;3.70;;;2.78;;
47784;SDS011;35233;55.686;37.848;2023-08-01T13:00:16;3.03;;;2.53;;
47784;SDS011;35233;55.686;37.848;2023-08-01T13:02:42;2.63;;;2.30;;
47784;SDS011;35233;55.686;37.848;2023-08-01T13:05:07;3.20;;;2.63;;
47784;SDS011;35233;55.686;37.848;2023-08-01T13:07:33;3.13;;;2.55;;
47784;SDS011;35233;55.686;37.848;2023-08-01T13:09:59;3.05;;;2.50;;
47784;SDS011;35233;55.686;37.848;2023-08-01T13:12:25;2.88;;;2.40;;
47784;SDS011;35233;55.686;37.848;2023-08-01T13:14:52;3.05;;;2.50;;
47784;SDS011;35233;55.686;37.848;2023-08-01T13:17:17;3.22;;;2.58;;
47784;SDS011;35233;55.686;37.848;2023-08-01T13:19:43;2.67;;;2.33;;
47784;SDS011;35233;55.686;37.848;2023-08-01T13:22:09;3.38;;;2.70;;
47784;SDS011;35233;55.686;37.848;2023-08-01T13:24:34;3.45;;;2.63;;
47784;SDS011;35233;55.686;37.848;2023-08-01T13:27:00;2.83;;;2.50;;
47784;SDS011;35233;55.686;37.848;2023-08-01T13:29:25;2.65;;;2.30;;
47784;SDS011;35233;55.686;37.848;2023-08-01T13:31:51;2.80;;;2.40;;
47784;SDS011;35233;55.686;37.848;2023-08-01T13:34:17;2.97;;;2.55;;
47784;SDS011;35233;55.686;37.848;2023-08-01T13:36:43;3.50;;;2.60;;
47784;SDS011;35233;55.686;37.848;2023-08-01T13:39:09;3.17;;;2.60;;
47784;SDS011;35233;55.686;37.848;2023-08-01T13:41:34;3.38;;;2.60;;
47784;SDS011;35233;55.686;37.848;2023-08-01T13:44:00;2.85;;;2.40;;
47784;SDS011;35233;55.686;37.848;2023-08-01T13:46:27;3.05;;;2.60;;
47784;SDS011;35233;55.686;37.848;2023-08-01T13:48:52;2.85;;;2.50;;
47784;SDS011;35233;55.686;37.848;2023-08-01T13:51:18;3.13;;;2.53;;
47784;SDS011;35233;55.686;37.848;2023-08-01T13:53:43;3.42;;;2.60;;
47784;SDS011;35233;55.686;37.848;2023-08-01T13:56:12;3.38;;;2.60;;
47784;SDS011;35233;55.686;37.848;2023-08-01T13:58:41;3.08;;;2.40;;
47784;SDS011;35233;55.686;37.848;2023-08-01T14:01:07;3.10;;;2.55;;
47784;SDS011;35233;55.686;37.848;2023-08-01T14:03:35;3.28;;;2.50;;
47784;SDS011;35233;55.686;37.848;2023-08-01T14:06:11;2.75;;;2.17;;
47784;SDS011;35233;55.686;37.848;2023-08-01T14:08:37;2.85;;;2.50;;
47784;SDS011;35233;55.686;37.848;2023-08-01T14:11:04;3.40;;;2.80;;
47784;SDS011;35233;55.686;37.848;2023-08-01T14:13:31;2.90;;;2.58;;
47784;SDS011;35233;55.686;37.848;2023-08-01T14:15:56;3.47;;;2.50;;
47784;SDS011;35233;55.686;37.848;2023-08-01T14:18:22;2.65;;;2.42;;
47784;SDS011;35233;55.686;37.848;2023-08-01T14:20:48;2.70;;;2.30;;
47784;SDS011;35233;55.686;37.848;2023-08-01T14:23:13;3.33;;;2.60;;
47784;SDS011;35233;55.686;37.848;2023-08-01T14:25:39;2.45;;;2.20;;
47784;SDS011;35233;55.686;37.848;2023-08-01T14:28:05;2.83;;;2.42;;
47784;SDS011;35233;55.686;37.848;2023-08-01T14:30:30;3.13;;;2.50;;
47784;SDS011;35233;55.686;37.848;2023-08-01T14:32:59;2.80;;;2.50;;
47784;SDS011;35233;55.686;37.848;2023-08-01T14:35:29;2.97;;;2.38;;
47784;SDS011;35233;55.686;37.848;2023-08-01T14:37:55;2.97;;;2.35;;
47784;SDS011;35233;55.686;37.848;2023-08-01T14:40:21;3.17;;;2.40;;
47784;SDS011;35233;55.686;37.848;2023-08-01T14:42:47;3.15;;;2.60;;